Time;durP1;ratioP1;P1;durP2;ratioP2;P2;SDS_P1;SDS_P2;PMS_P1;PMS_P2;Temp;Humidity;BMP_temperature;BMP_pressure;BME280_temperature;BME280_humidity;BME280_pressure;Samples;Min_cycle;Max_cycle;Signal;HPM_P1;HPM_P2
2021/08/21 00:01:25;;;;;;;5.03;3.87;;;20.20;95.80;;;;;;6326381;28;20566;-62
2021/08/21 00:04:28;;;;;;;4.83;4.43;;;20.20;95.90;;;;;;6326113;28;20230;-62
2021/08/21 00:07:32;;;;;;;4.77;4.37;;;20.20;96.00;;;;;;6326009;28;20221;-61
2021/08/21 00:10:36;;;;;;;4.50;3.60;;;20.20;96.10;;;;;;6326840;28;20206;-61
2021/08/21 00:13:41;;;;;;;4.37;3.97;;;20.20;96.10;;;;;;6325830;28;20267;-62
2021/08/21 00:16:44;;;;;;;5.10;4.60;;;20.20;96.10;;;;;;6326134;28;20226;-62
2021/08/21 00:19:47;;;;;;;4.43;3.57;;;20.10;96.20;;;;;;6325946;28;20206;-62
2021/08/21 00:22:51;;;;;;;5.03;4.00;;;20.10;96.30;;;;;;6326289;28;20226;-62
2021/08/21 00:25:54;;;;;;;4.87;4.40;;;20.10;96.40;;;;;;6328349;28;20229;-62
2021/08/21 00:28:58;;;;;;;5.30;3.90;;;20.10;96.30;;;;;;6336225;28;20229;-62
2021/08/21 00:32:02;;;;;;;4.77;4.27;;;20.00;96.40;;;;;;6339972;28;20687;-62
2021/08/21 00:35:06;;;;;;;3.90;3.40;;;20.00;96.50;;;;;;6346787;28;20233;-62
2021/08/21 00:38:09;;;;;;;5.10;3.83;;;20.00;96.70;;;;;;6350791;28;20241;-62
2021/08/21 00:41:12;;;;;;;8.63;4.20;;;19.90;96.80;;;;;;6338729;28;20567;-62
2021/08/21 00:44:17;;;;;;;5.03;3.93;;;19.90;97.00;;;;;;6337959;28;20676;-63
2021/08/21 00:47:21;;;;;;;4.40;3.90;;;19.90;97.50;;;;;;6337397;28;20226;-62
2021/08/21 00:50:24;;;;;;;4.80;4.30;;;19.90;97.60;;;;;;6336281;28;20229;-62
2021/08/21 00:53:28;;;;;;;5.00;4.40;;;19.90;97.70;;;;;;6344698;28;20217;-62
2021/08/21 00:56:32;;;;;;;5.03;4.50;;;19.80;97.60;;;;;;6346616;27;20225;-62
2021/08/21 00:59:38;;;;;;;4.27;3.87;;;19.80;97.60;;;;;;6349849;27;20234;-62
2021/08/21 01:02:41;;;;;;;4.87;4.30;;;19.80;97.80;;;;;;6350583;28;20248;-62
2021/08/21 01:05:44;;;;;;;3.93;3.63;;;19.80;97.90;;;;;;6350099;28;20244;-62
2021/08/21 01:08:48;;;;;;;4.87;4.37;;;19.70;97.90;;;;;;6350097;28;20229;-62
2021/08/21 01:11:51;;;;;;;4.93;4.43;;;19.70;98.00;;;;;;6349938;28;20234;-63
2021/08/21 01:14:55;;;;;;;5.77;4.23;;;19.70;98.20;;;;;;6349960;28;20592;-62
2021/08/21 01:17:58;;;;;;;3.93;3.57;;;19.60;98.20;;;;;;6349794;28;20233;-62
2021/08/21 01:21:02;;;;;;;6.10;4.10;;;19.60;98.70;;;;;;6349332;28;20575;-62
2021/08/21 01:24:07;;;;;;;6.30;4.43;;;19.70;98.40;;;;;;6349731;28;20243;-62
2021/08/21 01:27:17;;;;;;;6.53;4.07;;;19.60;98.40;;;;;;6349609;27;20576;-63
2021/08/21 01:30:20;;;;;;;7.27;4.57;;;19.60;98.40;;;;;;6349760;28;20225;-62
2021/08/21 01:33:23;;;;;;;4.67;4.27;;;19.60;98.40;;;;;;6349746;28;20575;-62
2021/08/21 01:36:26;;;;;;;4.77;4.27;;;19.60;98.50;;;;;;6349332;28;20248;-62
2021/08/21 01:39:30;;;;;;;5.87;4.60;;;19.60;98.60;;;;;;6349675;28;20236;-62
2021/08/21 01:42:34;;;;;;;4.77;4.23;;;19.60;98.60;;;;;;6349572;28;20237;-62
2021/08/21 01:45:37;;;;;;;5.63;4.27;;;19.60;98.60;;;;;;6349410;28;20361;-62
2021/08/21 01:48:40;;;;;;;4.80;4.27;;;19.50;98.50;;;;;;6349533;28;20359;-62
2021/08/21 01:51:46;;;;;;;5.33;4.33;;;19.50;98.60;;;;;;6349123;28;20229;-62
2021/08/21 01:54:49;;;;;;;5.23;4.73;;;19.50;98.60;;;;;;6349289;28;20571;-63
2021/08/21 01:57:53;;;;;;;4.67;4.27;;;19.50;98.60;;;;;;6348826;28;20689;-62
2021/08/21 02:00:59;;;;;;;4.87;4.37;;;19.50;98.50;;;;;;6349519;28;20237;-62
2021/08/21 02:04:03;;;;;;;4.30;4.00;;;19.40;98.50;;;;;;6349142;28;20225;-62
2021/08/21 02:07:07;;;;;;;4.57;4.17;;;19.40;98.70;;;;;;6349152;28;20225;-62
2021/08/21 02:10:11;;;;;;;4.93;4.00;;;19.30;98.80;;;;;;6349172;28;20244;-62
2021/08/21 02:13:15;;;;;;;6.20;3.63;;;19.30;98.90;;;;;;6349293;28;20225;-62
2021/08/21 02:16:20;;;;;;;4.20;3.80;;;19.30;99.20;;;;;;6348935;28;20221;-63
2021/08/21 02:19:23;;;;;;;5.10;4.60;;;19.30;99.00;;;;;;6348861;28;20239;-62
2021/08/21 02:22:26;;;;;;;4.90;4.07;;;19.20;98.90;;;;;;6348883;28;20616;-62
2021/08/21 02:25:31;;;;;;;4.20;3.80;;;19.20;99.00;;;;;;6348920;28;20221;-62
2021/08/21 02:28:35;;;;;;;4.80;4.10;;;19.20;99.10;;;;;;6349212;28;20233;-62
2021/08/21 02:31:39;;;;;;;5.03;4.30;;;19.10;99.20;;;;;;6349246;28;20769;-62
2021/08/21 02:34:42;;;;;;;4.80;4.40;;;19.10;99.40;;;;;;6353923;28;20198;-62
2021/08/21 02:37:45;;;;;;;4.77;4.03;;;19.10;99.60;;;;;;6353475;28;20232;-62
2021/08/21 02:40:48;;;;;;;5.00;4.50;;;19.20;99.70;;;;;;6354062;28;20209;-62
2021/08/21 02:43:53;;;;;;;4.77;4.33;;;19.10;99.60;;;;;;6343889;28;20554;-62
2021/08/21 02:46:56;;;;;;;5.53;5.03;;;19.10;99.70;;;;;;6353401;28;20670;-62
2021/08/21 02:49:59;;;;;;;5.00;4.50;;;19.10;99.90;;;;;;6353406;28;20248;-62
2021/08/21 02:53:03;;;;;;;5.17;4.67;;;19.10;99.90;;;;;;6353638;28;20232;-63
2021/08/21 02:56:07;;;;;;;5.70;5.07;;;19.00;99.70;;;;;;6353134;27;20225;-63
2021/08/21 02:59:11;;;;;;;4.53;4.13;;;19.00;99.90;;;;;;6352951;28;20232;-63
2021/08/21 03:02:14;;;;;;;6.73;5.07;;;19.00;99.90;;;;;;6353358;28;20221;-62
2021/08/21 03:05:18;;;;;;;4.50;4.00;;;19.00;99.90;;;;;;6353317;28;20226;-62
2021/08/21 03:08:21;;;;;;;5.20;4.50;;;19.00;99.90;;;;;;6352902;28;20693;-62
2021/08/21 03:11:24;;;;;;;6.90;4.23;;;19.00;99.90;;;;;;6352840;28;20221;-62
2021/08/21 03:14:29;;;;;;;5.43;5.00;;;19.00;99.90;;;;;;6353032;28;20487;-62
2021/08/21 03:17:32;;;;;;;6.63;4.93;;;19.00;99.90;;;;;;6352398;27;20574;-62
2021/08/21 03:20:35;;;;;;;4.40;3.90;;;19.00;99.90;;;;;;6352883;28;20218;-62
2021/08/21 03:23:38;;;;;;;4.30;3.90;;;19.00;99.90;;;;;;6352416;28;20256;-62
2021/08/21 03:26:41;;;;;;;5.77;4.23;;;19.00;99.90;;;;;;6352706;28;20231;-62
2021/08/21 03:29:46;;;;;;;4.57;4.10;;;18.90;99.90;;;;;;6352136;28;20561;-62
2021/08/21 03:32:49;;;;;;;4.90;4.40;;;18.90;99.90;;;;;;6352329;28;20690;-62
2021/08/21 03:35:52;;;;;;;4.00;3.70;;;18.90;99.90;;;;;;6352620;28;20245;-62
2021/08/21 03:38:56;;;;;;;7.00;4.40;;;18.80;99.90;;;;;;6351981;27;20579;-62
2021/08/21 03:41:59;;;;;;;4.50;3.80;;;18.80;99.90;;;;;;6352056;28;20474;-62
2021/08/21 03:45:04;;;;;;;4.40;3.93;;;18.70;99.90;;;;;;6351578;27;20252;-62
2021/08/21 03:48:08;;;;;;;4.57;4.17;;;18.70;99.90;;;;;;6347180;27;20233;-63
2021/08/21 03:51:11;;;;;;;4.70;3.80;;;18.70;99.90;;;;;;6352287;27;20229;-63
2021/08/21 03:54:14;;;;;;;9.97;3.83;;;18.70;99.90;;;;;;6352094;27;20304;-62
2021/08/21 03:57:17;;;;;;;4.57;3.67;;;18.70;99.90;;;;;;6351693;28;20236;-62
2021/08/21 04:00:22;;;;;;;4.60;4.17;;;18.70;99.90;;;;;;6351569;27;20229;-63
2021/08/21 04:03:25;;;;;;;4.50;4.10;;;18.70;99.90;;;;;;6351812;28;20226;-63
2021/08/21 04:06:28;;;;;;;4.40;4.00;;;18.70;99.90;;;;;;6351413;28;20478;-63
2021/08/21 04:09:31;;;;;;;6.20;3.90;;;18.70;99.90;;;;;;6351348;28;20233;-63
2021/08/21 04:12:35;;;;;;;4.80;4.40;;;18.60;99.90;;;;;;6351720;28;20240;-62
2021/08/21 04:15:40;;;;;;;3.97;3.67;;;18.60;99.90;;;;;;6351261;28;20303;-62
2021/08/21 04:18:43;;;;;;;5.53;5.00;;;18.70;99.90;;;;;;6351127;28;20547;-63
2021/08/21 04:21:46;;;;;;;4.53;3.97;;;18.60;99.90;;;;;;6351452;28;20222;-62
2021/08/21 04:24:50;;;;;;;5.27;4.30;;;18.70;99.90;;;;;;6351090;28;20693;-62
2021/08/21 04:27:53;;;;;;;5.03;4.20;;;18.70;99.90;;;;;;6351000;28;20566;-63
2021/08/21 04:30:59;;;;;;;5.60;4.03;;;18.70;99.90;;;;;;6350982;28;20225;-65
2021/08/21 04:34:02;;;;;;;5.67;5.17;;;18.70;99.90;;;;;;6351071;28;20310;-62
2021/08/21 04:37:06;;;;;;;5.50;4.80;;;18.70;99.90;;;;;;6350502;28;20713;-62
2021/08/21 04:40:10;;;;;;;5.60;4.63;;;18.70;99.90;;;;;;6350856;27;20472;-62
2021/08/21 04:43:13;;;;;;;5.13;4.73;;;18.70;99.90;;;;;;6350467;28;20252;-62
2021/08/21 04:46:18;;;;;;;6.27;4.57;;;18.70;99.90;;;;;;6350864;28;20468;-62
2021/08/21 04:49:21;;;;;;;5.00;4.50;;;18.70;99.90;;;;;;6350545;28;20249;-62
2021/08/21 04:52:25;;;;;;;8.00;4.60;;;18.70;99.90;;;;;;6350764;27;20468;-62
2021/08/21 04:55:28;;;;;;;5.37;4.53;;;18.80;99.90;;;;;;6344973;28;20485;-62
2021/08/21 04:58:31;;;;;;;6.97;5.03;;;18.80;99.90;;;;;;6350000;28;20690;-62
2021/08/21 05:01:35;;;;;;;4.80;4.33;;;18.90;99.90;;;;;;6325349;28;20222;-63
2021/08/21 05:04:39;;;;;;;4.97;4.50;;;19.00;99.90;;;;;;6324891;28;20662;-62
2021/08/21 05:07:46;;;;;;;5.33;4.60;;;19.00;99.90;;;;;;6324660;28;20218;-62
2021/08/21 05:10:49;;;;;;;4.63;4.23;;;19.10;99.90;;;;;;6324851;28;20517;-62
2021/08/21 05:13:52;;;;;;;4.87;4.47;;;19.20;99.90;;;;;;6325030;28;20230;-63
2021/08/21 05:16:57;;;;;;;5.27;4.77;;;19.30;99.90;;;;;;6324807;28;20226;-62
2021/08/21 05:20:06;;;;;;;5.07;4.57;;;19.40;99.90;;;;;;6324416;28;20613;-62
2021/08/21 05:23:14;;;;;;;6.00;5.40;;;19.50;99.90;;;;;;6324390;28;20234;-62
2021/08/21 05:26:17;;;;;;;6.30;4.07;;;19.70;99.90;;;;;;6325288;28;20229;-62
2021/08/21 05:29:20;;;;;;;6.63;5.83;;;20.00;99.90;;;;;;6324053;28;20230;-62
2021/08/21 05:32:25;;;;;;;7.73;5.50;;;20.10;99.70;;;;;;6324606;28;20236;-62
2021/08/21 05:35:28;;;;;;;6.07;5.37;;;20.50;99.40;;;;;;6324080;28;20223;-62
2021/08/21 05:38:31;;;;;;;5.80;5.30;;;20.70;99.00;;;;;;6323767;28;20691;-62
2021/08/21 05:41:34;;;;;;;6.10;5.50;;;21.00;98.60;;;;;;6323965;28;20687;-63
2021/08/21 05:44:37;;;;;;;7.60;5.70;;;21.10;98.70;;;;;;6324518;28;20226;-62
2021/08/21 05:47:42;;;;;;;6.20;5.60;;;21.40;98.30;;;;;;6324406;28;20234;-63
2021/08/21 05:50:45;;;;;;;6.27;5.67;;;21.70;97.90;;;;;;6324246;28;20241;-62
2021/08/21 05:53:49;;;;;;;7.13;6.13;;;21.90;97.30;;;;;;6323812;28;20221;-62
2021/08/21 05:56:52;;;;;;;8.30;6.00;;;22.30;97.20;;;;;;6314691;28;20234;-62
2021/08/21 05:59:55;;;;;;;8.70;7.90;;;22.50;96.50;;;;;;6323567;28;20600;-62
2021/08/21 06:03:00;;;;;;;8.80;7.57;;;22.40;96.10;;;;;;6323596;28;20226;-62
2021/08/21 06:06:03;;;;;;;9.23;7.67;;;22.30;96.40;;;;;;6325109;28;20226;-63
2021/08/21 06:09:06;;;;;;;8.53;7.63;;;22.40;96.60;;;;;;6329022;28;20233;-63
2021/08/21 06:12:10;;;;;;;8.17;6.10;;;22.60;96.30;;;;;;6329140;28;20624;-62
2021/08/21 06:15:13;;;;;;;8.83;7.67;;;23.10;95.90;;;;;;6328759;28;20233;-62
2021/08/21 06:18:17;;;;;;;7.90;6.90;;;23.80;95.10;;;;;;6328462;28;20285;-62
2021/08/21 06:21:21;;;;;;;8.10;7.30;;;24.60;93.70;;;;;;6328929;28;20312;-62
2021/08/21 06:24:24;;;;;;;8.47;7.67;;;25.20;92.10;;;;;;6328492;28;20226;-62
2021/08/21 06:27:27;;;;;;;8.83;7.90;;;25.20;90.90;;;;;;6328349;28;20702;-63
2021/08/21 06:30:30;;;;;;;8.40;7.57;;;25.00;91.10;;;;;;6328518;28;20568;-62
2021/08/21 06:33:35;;;;;;;9.07;7.03;;;24.80;91.30;;;;;;6328578;28;20230;-62
2021/08/21 06:36:38;;;;;;;7.63;6.53;;;24.50;91.50;;;;;;6328239;28;20707;-64
2021/08/21 06:39:41;;;;;;;7.87;7.07;;;24.30;91.80;;;;;;6328310;28;20230;-62
2021/08/21 06:42:44;;;;;;;7.50;6.90;;;24.10;92.10;;;;;;6328256;28;20248;-62
2021/08/21 06:45:47;;;;;;;8.30;6.73;;;24.10;92.60;;;;;;6328420;28;20233;-63
2021/08/21 06:48:52;;;;;;;11.87;7.57;;;24.10;92.80;;;;;;6328112;28;20230;-63
2021/08/21 06:51:55;;;;;;;7.10;6.57;;;25.00;92.80;;;;;;6327992;28;20233;-63
2021/08/21 06:55:03;;;;;;;6.93;5.97;;;26.40;90.60;;;;;;6327912;28;20222;-63
2021/08/21 06:58:06;;;;;;;7.93;7.20;;;28.00;84.90;;;;;;6327611;28;20233;-63
2021/08/21 07:01:10;;;;;;;8.50;7.53;;;29.50;79.00;;;;;;6323247;28;20229;-63
2021/08/21 07:04:16;;;;;;;8.33;7.50;;;30.50;72.90;;;;;;6327630;28;20247;-63
2021/08/21 07:07:19;;;;;;;7.27;6.57;;;31.60;68.40;;;;;;6326884;28;20226;-63
2021/08/21 07:10:22;;;;;;;7.05;6.43;;;32.30;63.60;;;;;;6314126;28;20315;-64
2021/08/21 07:13:25;;;;;;;7.78;6.78;;;33.00;59.40;;;;;;6316558;28;20697;-63
2021/08/21 07:16:28;;;;;;;7.85;7.25;;;33.70;57.60;;;;;;6306329;28;20233;-64
2021/08/21 07:19:33;;;;;;;7.10;6.40;;;34.60;55.00;;;;;;6301320;28;20230;-63
2021/08/21 07:22:36;;;;;;;7.75;7.05;;;35.50;51.80;;;;;;6302168;28;20226;-63
2021/08/21 07:25:39;;;;;;;7.15;6.55;;;36.40;49.30;;;;;;6302255;28;20214;-63
2021/08/21 07:28:43;;;;;;;6.25;5.72;;;37.20;46.80;;;;;;6301771;28;20271;-64
2021/08/21 07:31:46;;;;;;;6.55;5.95;;;37.90;44.60;;;;;;6304314;28;20213;-62
2021/08/21 07:34:50;;;;;;;7.07;6.38;;;38.30;42.40;;;;;;6326930;28;20216;-64
2021/08/21 07:37:53;;;;;;;8.02;5.68;;;38.40;40.20;;;;;;6327319;28;20230;-63
2021/08/21 07:40:58;;;;;;;5.65;5.15;;;38.70;39.70;;;;;;6326652;28;20236;-64
2021/08/21 07:44:01;;;;;;;5.57;5.03;;;38.80;37.70;;;;;;6326008;28;20230;-63
2021/08/21 07:47:05;;;;;;;5.55;5.00;;;39.80;36.60;;;;;;6324274;28;20233;-63
2021/08/21 07:50:11;;;;;;;5.35;4.95;;;40.60;35.50;;;;;;6324811;28;20236;-63
2021/08/21 07:53:14;;;;;;;5.25;4.85;;;41.70;33.80;;;;;;6324134;28;20248;-63
2021/08/21 07:56:17;;;;;;;6.13;5.55;;;42.40;32.90;;;;;;6324476;28;20236;-64
2021/08/21 07:59:20;;;;;;;5.90;5.50;;;42.20;32.10;;;;;;6324923;28;20229;-64
2021/08/21 08:02:23;;;;;;;4.68;4.28;;;43.10;31.40;;;;;;6321399;28;20225;-63
2021/08/21 08:05:28;;;;;;;7.38;6.68;;;43.90;30.20;;;;;;6326152;28;20675;-64
2021/08/21 08:08:31;;;;;;;5.18;4.60;;;44.80;29.40;;;;;;6326112;28;20221;-64
2021/08/21 08:11:34;;;;;;;5.60;5.20;;;44.50;29.40;;;;;;6340451;28;20229;-64
2021/08/21 08:14:37;;;;;;;5.65;5.15;;;45.00;29.00;;;;;;6330595;28;20232;-63
2021/08/21 08:17:40;;;;;;;5.60;5.07;;;45.60;28.20;;;;;;6326379;28;20284;-63
2021/08/21 08:20:45;;;;;;;6.38;4.85;;;46.00;27.90;;;;;;6337858;27;20229;-63
2021/08/21 08:23:49;;;;;;;5.28;4.88;;;46.60;27.20;;;;;;6350884;27;20233;-63
2021/08/21 08:26:52;;;;;;;4.75;4.45;;;47.10;26.70;;;;;;6349593;27;20251;-64
2021/08/21 08:29:55;;;;;;;5.78;5.30;;;47.90;26.40;;;;;;6349709;27;20564;-64
2021/08/21 08:32:59;;;;;;;5.30;4.90;;;47.90;25.80;;;;;;6329675;28;20699;-63
2021/08/21 08:36:04;;;;;;;5.97;5.00;;;47.40;25.80;;;;;;6325548;28;20230;-63
2021/08/21 08:39:07;;;;;;;4.85;4.45;;;47.30;26.20;;;;;;6325238;28;20366;-63
2021/08/21 08:42:11;;;;;;;5.10;4.68;;;47.50;25.80;;;;;;6325204;28;20239;-63
2021/08/21 08:45:15;;;;;;;4.80;4.30;;;47.20;25.60;;;;;;6325487;28;20231;-64
2021/08/21 08:48:18;;;;;;;4.95;4.53;;;47.90;25.60;;;;;;6325256;28;20256;-63
2021/08/21 08:51:23;;;;;;;5.07;4.68;;;48.50;25.10;;;;;;6325179;28;20230;-64
2021/08/21 08:54:26;;;;;;;4.70;4.30;;;49.30;24.00;;;;;;6325260;28;20241;-63
2021/08/21 08:57:37;;;;;;;5.53;4.80;;;49.80;23.90;;;;;;6325322;28;20239;-64
2021/08/21 09:00:40;;;;;;;4.40;3.97;;;50.70;23.60;;;;;;6324951;28;20246;-64
2021/08/21 09:03:44;;;;;;;4.70;4.30;;;51.40;22.80;;;;;;6346782;27;20228;-63
2021/08/21 09:06:48;;;;;;;4.38;3.97;;;51.30;22.40;;;;;;6344995;27;20678;-63
2021/08/21 09:10:11;;;;;;;3.78;3.58;;;51.10;22.50;;;;;;6349999;27;20232;-63
2021/08/21 09:13:15;;;;;;;4.70;4.40;;;50.50;22.60;;;;;;6349877;27;20247;-63
2021/08/21 09:16:26;;;;;;;4.57;4.28;;;46.80;24.50;;;;;;6350026;27;20238;-63
2021/08/21 09:19:29;;;;;;;5.00;4.55;;;45.20;26.00;;;;;;6344937;27;20296;-63
2021/08/21 09:22:34;;;;;;;4.57;4.28;;;43.50;26.90;;;;;;6324699;28;20217;-63
2021/08/21 09:25:37;;;;;;;4.20;3.90;;;42.90;27.60;;;;;;6324069;28;20667;-64
2021/08/21 09:28:41;;;;;;;5.28;4.82;;;42.00;28.10;;;;;;6322570;28;20217;-63
2021/08/21 09:31:45;;;;;;;4.72;4.43;;;41.50;28.70;;;;;;6311145;28;20613;-63
2021/08/21 09:34:49;;;;;;;4.90;4.50;;;40.30;30.00;;;;;;6323151;28;20647;-63
2021/08/21 09:37:55;;;;;;;4.90;4.05;;;39.60;30.60;;;;;;6324096;28;20224;-64
2021/08/21 09:41:01;;;;;;;5.05;4.65;;;38.20;33.10;;;;;;6323990;28;20233;-64
2021/08/21 09:44:06;;;;;;;5.10;4.50;;;37.30;34.70;;;;;;6323456;28;20218;-64
2021/08/21 09:47:19;;;;;;;5.28;4.78;;;36.40;35.00;;;;;;6324608;28;20237;-65
2021/08/21 09:50:22;;;;;;;8.55;4.68;;;35.60;35.80;;;;;;6323976;28;20226;-63
2021/08/21 09:53:36;;;;;;;4.82;4.40;;;35.20;37.50;;;;;;6323829;28;20674;-64
2021/08/21 09:56:42;;;;;;;4.75;4.38;;;34.50;38.40;;;;;;6323571;28;20233;-65
2021/08/21 09:59:45;;;;;;;5.72;5.22;;;33.80;39.70;;;;;;6323919;28;20237;-67
2021/08/21 10:02:49;;;;;;;5.18;4.68;;;33.40;39.90;;;;;;6323863;28;20567;-64
2021/08/21 10:05:52;;;;;;;5.15;4.40;;;33.00;40.70;;;;;;6323845;28;20695;-64
2021/08/21 10:09:01;;;;;;;5.75;5.20;;;33.00;41.40;;;;;;6319469;28;20287;-60
2021/08/21 10:12:05;;;;;;;6.03;5.60;;;33.00;41.00;;;;;;6323879;28;20312;-60
2021/08/21 10:15:09;;;;;;;4.72;3.95;;;33.00;41.60;;;;;;6323709;28;20248;-59
2021/08/21 10:18:12;;;;;;;5.45;4.95;;;32.70;42.20;;;;;;6323751;28;20241;-59
2021/08/21 10:21:17;;;;;;;6.10;5.53;;;32.50;42.40;;;;;;6322399;28;20563;-59
2021/08/21 10:24:29;;;;;;;5.50;5.00;;;32.50;42.30;;;;;;6322928;28;20236;-59
2021/08/21 10:27:37;;;;;;;5.53;4.85;;;32.30;42.10;;;;;;6332741;27;20222;-59
2021/08/21 10:30:42;;;;;;;6.38;5.30;;;32.30;42.60;;;;;;6335202;28;20564;-59
2021/08/21 10:33:54;;;;;;;5.60;5.20;;;32.00;43.40;;;;;;6344971;27;20557;-59
2021/08/21 10:36:58;;;;;;;5.70;5.22;;;31.80;44.50;;;;;;6348580;27;20565;-59
2021/08/21 10:40:31;;;;;;;5.68;5.20;;;31.60;44.60;;;;;;6348830;27;20573;-59
2021/08/21 10:43:47;;;;;;;5.72;5.18;;;31.40;45.20;;;;;;6348685;27;20220;-59
2021/08/21 10:46:53;;;;;;;5.60;5.03;;;31.60;44.70;;;;;;6348912;27;20229;-60
2021/08/21 10:49:58;;;;;;;5.63;4.95;;;31.50;44.40;;;;;;6347202;27;20221;-59
2021/08/21 10:53:05;;;;;;;5.13;4.70;;;31.60;44.40;;;;;;6346319;27;20232;-59
2021/08/21 10:56:29;;;;;;;6.07;4.82;;;31.80;44.80;;;;;;6350019;27;20239;-59
2021/08/21 10:59:44;;;;;;;6.80;5.18;;;31.80;44.20;;;;;;6349093;27;20573;-60
2021/08/21 11:02:47;;;;;;;5.22;4.82;;;31.50;44.30;;;;;;6349893;27;20598;-60
2021/08/21 11:05:54;;;;;;;5.40;4.90;;;31.60;44.50;;;;;;6351855;27;20574;-64
2021/08/21 11:08:59;;;;;;;5.50;5.00;;;31.50;44.40;;;;;;6353208;27;20228;-64
2021/08/21 11:12:03;;;;;;;5.30;4.80;;;31.40;44.60;;;;;;6353239;27;20232;-65
2021/08/21 11:15:16;;;;;;;5.55;5.05;;;31.50;45.10;;;;;;6353164;27;20235;-64
2021/08/21 11:18:21;;;;;;;5.20;4.75;;;31.60;44.70;;;;;;6352634;27;20229;-64
2021/08/21 11:21:36;;;;;;;6.20;5.65;;;31.70;45.40;;;;;;6352934;27;20225;-64
2021/08/21 11:24:56;;;;;;;4.57;4.25;;;31.60;45.30;;;;;;6352662;27;20229;-64
2021/08/21 11:28:05;;;;;;;6.18;5.43;;;31.70;45.70;;;;;;6352599;27;20248;-63
2021/08/21 11:31:11;;;;;;;5.95;5.45;;;31.80;45.50;;;;;;6352395;27;20565;-63
2021/08/21 11:34:14;;;;;;;4.90;4.50;;;31.90;45.50;;;;;;6352371;27;20221;-63
2021/08/21 11:37:18;;;;;;;5.90;5.40;;;31.90;45.80;;;;;;6352108;27;20224;-64
2021/08/21 11:40:22;;;;;;;6.22;4.90;;;31.90;45.40;;;;;;6352470;27;20298;-65
2021/08/21 11:43:27;;;;;;;4.93;4.40;;;31.80;45.70;;;;;;6352108;27;20224;-64
2021/08/21 11:46:32;;;;;;;4.90;4.60;;;31.50;46.10;;;;;;6352499;27;20240;-64
2021/08/21 11:49:35;;;;;;;4.63;4.32;;;31.40;46.10;;;;;;6351867;27;20205;-63
2021/08/21 11:52:38;;;;;;;5.40;4.90;;;31.20;46.90;;;;;;6352416;27;20205;-63
2021/08/21 11:55:42;;;;;;;5.43;4.93;;;31.50;46.20;;;;;;6351533;27;20211;-68
2021/08/21 11:58:46;;;;;;;5.30;4.90;;;31.50;45.50;;;;;;6351451;27;20581;-69
2021/08/21 12:02:08;;;;;;;5.47;4.97;;;31.40;45.60;;;;;;6351665;27;20704;-69
2021/08/21 12:05:11;;;;;;;5.55;5.15;;;31.20;45.80;;;;;;6351493;27;20224;-70
2021/08/21 12:08:20;;;;;;;5.93;5.40;;;31.20;46.00;;;;;;6351428;27;20225;-69
2021/08/21 12:11:28;;;;;;;6.25;5.35;;;31.30;45.90;;;;;;6351677;27;20558;-70
2021/08/21 12:14:32;;;;;;;5.82;5.32;;;31.40;45.30;;;;;;6351407;27;20229;-70
2021/08/21 12:17:37;;;;;;;6.22;5.05;;;31.40;45.60;;;;;;6342072;27;20229;-70
2021/08/21 12:20:40;;;;;;;5.88;5.28;;;31.40;46.20;;;;;;6351052;27;20232;-68
2021/08/21 12:23:44;;;;;;;5.70;5.20;;;30.90;47.70;;;;;;6351338;27;20228;-69
2021/08/21 12:26:48;;;;;;;5.88;5.28;;;30.70;47.70;;;;;;6351238;27;20243;-69
2021/08/21 12:30:09;;;;;;;5.22;4.82;;;30.80;47.40;;;;;;6351325;27;20231;-69
2021/08/21 12:33:14;;;;;;;5.55;4.93;;;31.00;46.70;;;;;;6350950;27;20681;-68
2021/08/21 12:36:19;;;;;;;5.63;5.13;;;31.10;46.70;;;;;;6350740;27;20627;-68
2021/08/21 12:39:24;;;;;;;4.95;4.50;;;31.10;46.70;;;;;;6350759;27;20702;-69
2021/08/21 12:42:29;;;;;;;4.88;4.47;;;31.10;46.50;;;;;;6350566;27;20328;-68
2021/08/21 12:45:41;;;;;;;6.05;5.43;;;31.10;46.50;;;;;;6350441;27;20232;-69
2021/08/21 12:48:47;;;;;;;5.95;5.43;;;30.60;46.40;;;;;;6350681;27;20572;-69
2021/08/21 12:51:56;;;;;;;5.40;4.90;;;30.70;46.90;;;;;;6350451;27;20606;-69
2021/08/21 12:55:00;;;;;;;4.57;4.18;;;30.90;46.50;;;;;;6350502;27;20224;-69
2021/08/21 12:58:07;;;;;;;5.68;5.13;;;31.10;46.30;;;;;;6350182;27;20241;-70
2021/08/21 13:01:10;;;;;;;5.32;4.82;;;31.10;46.30;;;;;;6350380;27;20220;-69
2021/08/21 13:04:14;;;;;;;4.82;4.43;;;31.20;45.90;;;;;;6350264;27;20674;-69
2021/08/21 13:07:18;;;;;;;5.55;5.07;;;31.20;45.70;;;;;;6350154;27;20233;-69
2021/08/21 13:10:23;;;;;;;5.45;4.95;;;30.90;46.70;;;;;;6350565;27;20234;-68
2021/08/21 13:13:27;;;;;;;5.60;5.13;;;30.60;46.70;;;;;;6350035;27;20685;-70
2021/08/21 13:16:30;;;;;;;5.30;4.90;;;30.80;46.70;;;;;;6349674;27;20224;-69
2021/08/21 13:19:34;;;;;;;5.20;4.70;;;30.60;46.80;;;;;;6350023;27;20239;-69
2021/08/21 13:22:38;;;;;;;7.22;5.05;;;30.80;46.90;;;;;;6349943;27;20225;-68
2021/08/21 13:25:42;;;;;;;6.18;5.68;;;30.80;46.90;;;;;;6349644;27;20231;-68
2021/08/21 13:28:45;;;;;;;5.75;5.30;;;30.90;47.00;;;;;;6349713;27;20561;-69
2021/08/21 13:31:48;;;;;;;5.75;5.25;;;31.00;47.00;;;;;;6349581;27;20529;-69
2021/08/21 13:34:53;;;;;;;5.50;5.10;;;30.80;47.10;;;;;;6349863;27;20254;-69
2021/08/21 13:37:56;;;;;;;6.38;4.50;;;30.60;47.30;;;;;;6349649;27;20229;-68
2021/08/21 13:40:59;;;;;;;6.13;5.53;;;30.20;48.10;;;;;;6349211;27;20674;-68
2021/08/21 13:44:03;;;;;;;6.10;5.50;;;30.30;48.20;;;;;;6348984;27;20612;-68
2021/08/21 13:47:06;;;;;;;6.37;5.67;;;30.50;47.70;;;;;;6349530;27;20229;-68
2021/08/21 13:50:12;;;;;;;5.53;5.03;;;30.50;47.60;;;;;;6349412;27;20217;-68
2021/08/21 13:53:15;;;;;;;5.38;4.88;;;30.50;47.80;;;;;;6349305;27;20251;-68
2021/08/21 13:56:18;;;;;;;5.67;5.27;;;30.60;47.50;;;;;;6349423;27;20231;-68
2021/08/21 13:59:21;;;;;;;6.30;5.80;;;30.60;47.10;;;;;;6349027;27;20232;-68
2021/08/21 14:02:25;;;;;;;5.30;4.80;;;30.60;47.10;;;;;;6349699;27;20225;-68
2021/08/21 14:05:29;;;;;;;5.15;4.47;;;30.60;47.60;;;;;;6349185;27;20228;-68
2021/08/21 14:08:32;;;;;;;5.83;5.30;;;30.50;47.90;;;;;;6349691;27;20225;-67
2021/08/21 14:11:38;;;;;;;5.68;5.07;;;30.40;48.40;;;;;;6349179;27;20224;-68
2021/08/21 14:14:42;;;;;;;5.80;5.30;;;30.10;48.60;;;;;;6349229;27;20232;-68
2021/08/21 14:17:45;;;;;;;5.50;5.10;;;30.00;49.40;;;;;;6349347;27;20240;-68
2021/08/21 14:20:49;;;;;;;5.17;4.73;;;29.90;48.80;;;;;;6349302;27;20255;-68
2021/08/21 14:23:53;;;;;;;5.97;5.33;;;29.80;49.20;;;;;;6349084;27;20266;-68
2021/08/21 14:26:56;;;;;;;5.73;5.23;;;29.90;49.10;;;;;;6349759;27;20739;-68
2021/08/21 14:29:59;;;;;;;5.47;5.07;;;29.90;49.80;;;;;;6353950;27;20574;-68
2021/08/21 14:33:03;;;;;;;6.10;5.50;;;29.90;49.20;;;;;;6354180;27;20229;-68
2021/08/21 14:36:08;;;;;;;6.93;5.53;;;29.90;49.40;;;;;;6353976;27;20290;-69
2021/08/21 14:39:11;;;;;;;5.87;5.37;;;29.90;49.90;;;;;;6353833;27;20240;-68
2021/08/21 14:42:14;;;;;;;5.40;4.90;;;29.90;50.20;;;;;;6354031;27;20221;-69
2021/08/21 14:45:17;;;;;;;5.60;5.10;;;29.90;50.30;;;;;;6353565;27;20225;-70
2021/08/21 14:48:20;;;;;;;5.63;5.23;;;29.90;50.10;;;;;;6353771;27;20224;-68
2021/08/21 14:51:25;;;;;;;7.83;5.47;;;30.00;50.00;;;;;;6353455;27;20229;-68
2021/08/21 14:54:28;;;;;;;5.03;4.63;;;29.90;50.50;;;;;;6353647;27;20273;-68
2021/08/21 14:57:31;;;;;;;6.23;5.00;;;29.90;50.70;;;;;;6352999;27;20233;-68
2021/08/21 15:00:34;;;;;;;6.10;5.60;;;30.00;50.90;;;;;;6352925;27;20232;-68
2021/08/21 15:03:40;;;;;;;6.07;5.33;;;30.00;50.80;;;;;;6352711;27;20266;-68
2021/08/21 15:06:44;;;;;;;5.40;4.90;;;30.00;50.90;;;;;;6352785;27;20716;-69
2021/08/21 15:09:47;;;;;;;6.40;5.70;;;30.00;50.40;;;;;;6352977;27;20615;-69
2021/08/21 15:12:53;;;;;;;5.53;5.13;;;30.00;50.40;;;;;;6353053;27;20236;-69
2021/08/21 15:15:57;;;;;;;5.97;5.37;;;30.10;50.60;;;;;;6352797;27;20228;-69
2021/08/21 15:19:01;;;;;;;7.33;5.00;;;30.20;50.80;;;;;;6352970;27;20224;-70
2021/08/21 15:22:05;;;;;;;5.40;5.00;;;30.10;50.20;;;;;;6352152;27;20224;-70
2021/08/21 15:25:10;;;;;;;6.10;5.50;;;30.10;50.30;;;;;;6352696;27;20248;-70
2021/08/21 15:28:13;;;;;;;5.63;5.13;;;30.20;50.10;;;;;;6352741;27;20229;-70
2021/08/21 15:31:17;;;;;;;5.93;5.37;;;30.20;50.40;;;;;;6352458;27;20228;-67
2021/08/21 15:34:20;;;;;;;6.33;5.73;;;30.10;50.20;;;;;;6353084;27;20225;-70
2021/08/21 15:37:24;;;;;;;5.87;5.30;;;30.10;50.30;;;;;;6352027;27;20570;-68
2021/08/21 15:40:27;;;;;;;5.70;5.20;;;30.20;50.80;;;;;;6351651;27;20566;-69
2021/08/21 15:43:32;;;;;;;7.00;5.70;;;30.10;51.10;;;;;;6352288;27;20566;-67
2021/08/21 15:46:35;;;;;;;6.50;5.73;;;30.10;51.40;;;;;;6349739;27;20603;-66
2021/08/21 15:49:39;;;;;;;6.50;5.80;;;30.00;51.90;;;;;;6351978;27;20212;-70
2021/08/21 15:52:44;;;;;;;6.10;5.67;;;30.00;51.80;;;;;;6352219;27;20205;-68
2021/08/21 15:55:47;;;;;;;6.13;5.63;;;29.90;51.70;;;;;;6351833;27;20266;-67
2021/08/21 15:58:50;;;;;;;5.70;5.27;;;29.80;52.00;;;;;;6351537;27;20241;-68
2021/08/21 16:01:53;;;;;;;5.20;4.70;;;29.50;52.60;;;;;;6351797;27;20219;-68